Time;durP1;ratioP1;P1;durP2;ratioP2;P2;SDS_P1;SDS_P2;PMS_P1;PMS_P2;Temp;Humidity;BMP_temperature;BMP_pressure;BME280_temperature;BME280_humidity;BME280_pressure;Samples;Min_cycle;Max_cycle;Signal;HPM_P1;HPM_P2
2023/09/03 00:02:20;;;;;;;3.10;1.90;;;;;;;-145.69;52.77;51808.72;5131873;27;20201;-79
2023/09/03 00:04:48;;;;;;;4.53;1.65;;;;;;;-145.69;54.19;51818.63;5133413;28;20197;-81
2023/09/03 00:07:14;;;;;;;5.15;1.90;;;;;;;-145.69;53.55;51826.56;5133410;27;20628;-81
2023/09/03 00:09:41;;;;;;;3.42;1.95;;;;;;;-145.69;53.25;51822.59;5132426;27;20196;-81
2023/09/03 00:12:09;;;;;;;4.60;2.00;;;;;;;-145.69;53.26;51794.88;5133570;27;20651;-80
2023/09/03 00:14:36;;;;;;;2.80;1.60;;;;;;;-145.69;53.27;51822.59;5133218;28;20570;-80
2023/09/03 00:17:02;;;;;;;3.80;1.75;;;;;;;-145.69;53.44;51830.50;5133249;28;20196;-80
2023/09/03 00:19:30;;;;;;;4.20;2.03;;;;;;;-145.69;53.59;51798.81;5133561;27;20225;-80
2023/09/03 00:21:57;;;;;;;3.47;2.08;;;;;;;-145.69;54.57;51828.53;5133595;27;20200;-79
2023/09/03 00:24:24;;;;;;;5.00;1.90;;;;;;;-145.69;53.90;51792.88;5133441;27;20188;-80
2023/09/03 00:26:50;;;;;;;3.10;1.90;;;;;;;-145.69;54.43;51832.50;5132800;27;20558;-79
2023/09/03 00:29:17;;;;;;;3.90;2.10;;;;;;;-145.69;53.43;51810.72;5133213;28;20196;-80
2023/09/03 00:31:43;;;;;;;2.95;1.85;;;;;;;-145.69;53.20;51826.56;5133211;28;20208;-80
2023/09/03 00:34:10;;;;;;;6.85;1.85;;;;;;;-145.69;53.59;51842.38;5132775;28;20236;-80
2023/09/03 00:36:37;;;;;;;2.95;2.17;;;;;;;-145.69;53.47;51818.63;5133460;28;20197;-80
2023/09/03 00:39:04;;;;;;;6.65;2.25;;;;;;;-145.69;53.66;51822.59;5133617;27;20203;-79
2023/09/03 00:41:34;;;;;;;4.38;2.22;;;;;;;-145.69;53.42;51808.72;5132810;27;20655;-79
2023/09/03 00:44:00;;;;;;;7.88;1.90;;;;;;;-145.69;53.46;51806.75;5132633;27;20264;-79
2023/09/03 00:46:34;;;;;;;5.15;2.00;;;;;;;-145.69;53.80;51828.53;5133177;28;20195;-80
2023/09/03 00:49:00;;;;;;;7.50;2.05;;;;;;;-145.69;54.66;51814.66;5133062;27;20551;-79
2023/09/03 00:51:27;;;;;;;3.42;2.10;;;;;;;-145.69;54.21;51790.91;5133030;28;20201;-80
2023/09/03 00:53:57;;;;;;;3.10;2.00;;;;;;;-145.69;53.85;51798.81;5133514;28;20208;-80
2023/09/03 00:56:23;;;;;;;4.32;2.05;;;;;;;-145.69;54.71;51798.81;5133017;28;20220;-80
2023/09/03 00:58:51;;;;;;;9.52;2.30;;;;;;;-145.69;54.48;51826.56;5133557;27;20217;-80
2023/09/03 01:01:18;;;;;;;7.72;2.10;;;;;;;-145.69;54.18;51818.63;5123722;28;20227;-80
2023/09/03 01:03:46;;;;;;;4.22;2.40;;;;;;;-145.69;53.81;51798.81;5133089;27;20254;-79
2023/09/03 01:06:12;;;;;;;4.05;2.05;;;;;;;-145.69;54.41;51812.69;5130987;27;20224;-80
2023/09/03 01:08:39;;;;;;;3.67;2.03;;;;;;;-145.69;54.41;51824.56;5128220;27;20529;-80
2023/09/03 01:11:22;;;;;;;5.32;2.40;;;;;;;-145.69;52.54;51786.94;5116670;28;20193;-80
2023/09/03 01:13:57;;;;;;;5.47;1.98;;;;;;;-145.69;51.61;51818.63;5112478;28;20206;-79
2023/09/03 01:16:28;;;;;;;2.88;1.77;;;;;;;-145.69;52.04;51781.00;5115392;28;20207;-80
2023/09/03 01:18:57;;;;;;;8.43;3.08;;;;;;;-145.69;52.43;51784.97;5116212;28;20205;-80
2023/09/03 01:21:54;;;;;;;3.23;2.10;;;;;;;-145.69;51.84;51790.91;5133118;27;20819;-80
2023/09/03 01:24:36;;;;;;;4.05;1.88;;;;;;;-145.69;52.42;51830.50;5136583;27;20639;-79
2023/09/03 01:27:19;;;;;;;2.08;1.73;;;;;;;-145.69;52.08;51816.66;5136271;27;20596;-79
2023/09/03 01:29:47;;;;;;;5.50;2.15;;;;;;;-145.69;52.38;51822.59;5136681;27;20211;-80
2023/09/03 01:32:17;;;;;;;4.70;2.22;;;;;;;-145.69;53.43;51806.75;5135780;27;20215;-80
2023/09/03 01:34:44;;;;;;;3.88;1.95;;;;;;;-145.69;53.48;51836.44;5136217;27;20200;-79
2023/09/03 01:37:14;;;;;;;5.75;2.30;;;;;;;-145.69;53.48;51840.41;5134713;27;20664;-79
2023/09/03 01:39:42;;;;;;;11.63;2.33;;;;;;;-145.69;53.11;51796.84;5136352;27;20208;-80
2023/09/03 01:42:09;;;;;;;4.65;2.60;;;;;;;-145.69;53.15;51810.72;5135743;27;20690;-79
2023/09/03 01:44:39;;;;;;;2.53;1.70;;;;;;;-145.69;52.57;51826.56;5135857;27;20196;-80
2023/09/03 01:47:17;;;;;;;3.17;1.95;;;;;;;-145.69;52.39;51808.72;5136076;27;20283;-80
2023/09/03 01:49:55;;;;;;;8.80;2.33;;;;;;;-145.69;52.26;51818.63;5135587;27;20686;-80
2023/09/03 01:52:32;;;;;;;4.78;2.35;;;;;;;-145.69;52.44;51810.72;5136163;27;20229;-80
2023/09/03 01:55:02;;;;;;;3.25;1.65;;;;;;;-145.69;53.28;51796.84;5135776;27;20750;-80
2023/09/03 01:57:31;;;;;;;2.33;1.63;;;;;;;-145.69;52.97;51814.66;5135563;27;20655;-80
2023/09/03 02:00:05;;;;;;;5.45;2.50;;;;;;;-145.69;52.76;51826.56;5135228;27;20220;-80
2023/09/03 02:02:36;;;;;;;6.07;1.80;;;;;;;-145.69;52.42;51818.63;5127052;27;20261;-80
2023/09/03 02:05:03;;;;;;;2.83;1.83;;;;;;;-145.69;53.93;51858.22;5135047;27;20440;-80
2023/09/03 02:07:29;;;;;;;4.95;1.88;;;;;;;-145.69;53.71;51838.44;5134228;27;20189;-79
2023/09/03 02:09:56;;;;;;;3.92;1.85;;;;;;;-145.69;53.80;51824.56;5135100;27;20189;-80
2023/09/03 02:12:24;;;;;;;2.10;1.75;;;;;;;-145.69;53.78;51810.72;5134983;27;20193;-80
2023/09/03 02:14:53;;;;;;;4.03;2.25;;;;;;;-145.69;52.99;51812.69;5135350;27;20208;-80
2023/09/03 02:17:20;;;;;;;4.55;2.30;;;;;;;-145.69;53.78;51846.34;5135879;27;20197;-81
2023/09/03 02:19:52;;;;;;;5.57;2.15;;;;;;;-145.69;53.58;51822.59;5135276;27;20232;-81
2023/09/03 02:22:20;;;;;;;7.38;2.38;;;;;;;-145.69;54.25;51834.47;5135489;27;20200;-81
2023/09/03 02:24:47;;;;;;;4.65;2.28;;;;;;;-145.69;54.14;51814.66;5134758;27;20208;-80
2023/09/03 02:27:13;;;;;;;4.03;2.00;;;;;;;-145.69;54.13;51800.81;5135162;27;20253;-81
2023/09/03 02:29:40;;;;;;;3.75;2.22;;;;;;;-145.69;53.63;51826.56;5135055;27;20213;-81
2023/09/03 02:32:07;;;;;;;7.28;2.45;;;;;;;-145.69;54.42;51824.56;5135042;27;20749;-80
2023/09/03 02:34:35;;;;;;;7.32;2.45;;;;;;;-145.69;54.04;51810.72;5135295;27;20209;-80
2023/09/03 02:37:03;;;;;;;5.47;2.38;;;;;;;-145.69;53.60;51814.66;5134351;27;20695;-81
2023/09/03 02:39:29;;;;;;;4.70;2.10;;;;;;;-145.69;53.75;51814.66;5134337;27;20193;-81
2023/09/03 02:41:57;;;;;;;3.22;1.80;;;;;;;-145.69;54.13;51846.34;5134794;27;20228;-81
2023/09/03 02:44:24;;;;;;;9.95;2.08;;;;;;;-145.69;54.21;51810.72;5135365;27;20299;-81
2023/09/03 02:46:50;;;;;;;10.10;2.58;;;;;;;-145.69;54.81;51824.56;5134520;27;20437;-81
2023/09/03 02:49:17;;;;;;;2.35;2.15;;;;;;;-145.69;54.03;51826.56;5133977;27;20192;-81
2023/09/03 02:51:44;;;;;;;10.85;3.10;;;;;;;-145.69;53.83;51860.22;5134792;27;20220;-81
2023/09/03 02:54:12;;;;;;;4.07;2.20;;;;;;;-145.69;53.80;51818.63;5134604;27;20197;-81
2023/09/03 02:56:38;;;;;;;2.10;1.90;;;;;;;-145.69;53.65;51820.59;5134416;27;20288;-81
2023/09/03 02:59:05;;;;;;;6.97;2.30;;;;;;;-145.69;54.26;51834.47;5133079;27;20261;-82
2023/09/03 03:01:33;;;;;;;4.38;1.77;;;;;;;-145.69;53.92;51842.38;5132674;27;20262;-81
2023/09/03 03:04:00;;;;;;;4.45;2.38;;;;;;;-145.69;53.63;51830.50;5134440;27;20197;-82
2023/09/03 03:06:27;;;;;;;3.67;2.45;;;;;;;-145.69;54.11;51834.47;5133409;27;20223;-82
2023/09/03 03:08:53;;;;;;;4.72;2.47;;;;;;;-145.69;54.76;51852.28;5134881;27;20236;-81
2023/09/03 03:11:23;;;;;;;4.05;2.10;;;;;;;-145.69;54.89;51808.72;5134496;27;20698;-81
2023/09/03 03:13:52;;;;;;;3.30;2.25;;;;;;;-145.69;55.24;51866.16;5134262;27;20197;-81
2023/09/03 03:16:18;;;;;;;3.25;2.13;;;;;;;-145.69;54.70;51842.38;5133388;27;20280;-80
2023/09/03 03:18:46;;;;;;;3.72;2.03;;;;;;;-145.69;54.58;51832.50;5134320;27;20199;-81
2023/09/03 03:21:14;;;;;;;3.78;2.13;;;;;;;-145.69;54.46;51832.50;5133756;27;20649;-82
2023/09/03 03:23:42;;;;;;;3.40;1.88;;;;;;;-145.69;54.48;51842.38;5133836;27;20211;-81
2023/09/03 03:26:09;;;;;;;2.33;2.10;;;;;;;-145.69;54.48;51850.31;5133801;27;20603;-81
2023/09/03 03:28:37;;;;;;;2.83;2.00;;;;;;;-145.69;54.66;51842.38;5134423;27;20236;-82
2023/09/03 03:31:10;;;;;;;4.00;2.33;;;;;;;-145.69;54.03;51862.19;5134274;27;20758;-81
2023/09/03 03:33:38;;;;;;;4.40;1.92;;;;;;;-145.69;55.31;51872.09;5134149;27;20222;-81
2023/09/03 03:36:05;;;;;;;3.17;2.40;;;;;;;-145.69;55.08;51832.50;5133693;27;20528;-80
2023/09/03 03:38:32;;;;;;;4.55;2.22;;;;;;;-145.69;54.63;51838.44;5133616;27;20211;-81
2023/09/03 03:41:10;;;;;;;4.65;2.90;;;;;;;-145.69;54.16;51822.59;5133511;27;20217;-81
2023/09/03 03:43:41;;;;;;;4.10;2.55;;;;;;;-145.69;54.87;51838.44;5133742;27;20278;-82
2023/09/03 03:46:08;;;;;;;5.55;2.60;;;;;;;-145.69;55.69;51794.88;5133962;27;20243;-82
2023/09/03 03:48:35;;;;;;;4.57;2.53;;;;;;;-145.69;54.92;51842.38;5133673;27;20196;-81
2023/09/03 03:51:02;;;;;;;4.00;2.67;;;;;;;-145.69;55.37;51850.31;5133898;27;20196;-80
2023/09/03 03:53:29;;;;;;;4.68;2.60;;;;;;;-145.69;55.08;51842.38;5133847;27;20205;-81
2023/09/03 03:55:59;;;;;;;3.92;2.50;;;;;;;-145.69;55.14;51854.28;5134071;27;20201;-80
2023/09/03 03:58:27;;;;;;;4.38;2.70;;;;;;;-145.69;54.82;51862.19;5133580;27;20204;-81
2023/09/03 04:00:54;;;;;;;2.63;2.30;;;;;;;-145.69;54.35;51858.22;5133288;27;20235;-81
2023/09/03 04:03:22;;;;;;;5.28;2.30;;;;;;;-145.69;54.29;51832.50;5133619;28;20205;-81
2023/09/03 04:05:57;;;;;;;3.65;2.10;;;;;;;-145.69;53.90;51808.72;5133292;27;20196;-81
2023/09/03 04:08:23;;;;;;;4.15;2.60;;;;;;;-145.69;54.58;51846.34;5132593;28;20200;-81
2023/09/03 04:10:56;;;;;;;3.33;2.38;;;;;;;-145.69;54.13;51866.16;5132922;28;20610;-82
2023/09/03 04:13:23;;;;;;;7.20;2.40;;;;;;;-145.69;54.61;51832.50;5133114;27;20609;-81
2023/09/03 04:15:49;;;;;;;3.75;1.92;;;;;;;-145.69;54.61;51858.22;5132957;27;20236;-80
2023/09/03 04:18:17;;;;;;;4.55;2.47;;;;;;;-145.69;54.63;51806.75;5133807;27;20211;-81
2023/09/03 04:20:44;;;;;;;7.13;2.42;;;;;;;-145.69;54.98;51854.28;5133169;27;20307;-81
2023/09/03 04:23:11;;;;;;;4.35;2.10;;;;;;;-145.69;54.89;51834.47;5133633;27;20647;-81
2023/09/03 04:25:38;;;;;;;7.55;2.28;;;;;;;-145.69;55.42;51848.34;5132942;27;20210;-80
2023/09/03 04:28:05;;;;;;;4.38;2.20;;;;;;;-145.69;54.99;51860.22;5132808;28;20205;-81
2023/09/03 04:30:31;;;;;;;6.32;2.90;;;;;;;-145.69;55.30;51866.16;5133115;27;20279;-81
2023/09/03 04:32:58;;;;;;;4.38;2.63;;;;;;;-145.69;55.33;51868.13;5133443;27;20288;-81
2023/09/03 04:35:26;;;;;;;4.72;2.05;;;;;;;-145.69;55.18;51834.47;5133189;27;20627;-81
2023/09/03 04:37:52;;;;;;;7.53;2.60;;;;;;;-145.69;55.00;51852.28;5132715;27;20228;-81
2023/09/03 04:40:19;;;;;;;3.28;2.10;;;;;;;-145.69;54.37;51852.28;5132998;27;20197;-81
2023/09/03 04:42:46;;;;;;;4.88;2.08;;;;;;;-145.69;54.28;51840.41;5132391;28;20235;-80
2023/09/03 04:45:13;;;;;;;3.70;2.20;;;;;;;-145.69;54.36;51830.50;5133139;28;20211;-81
2023/09/03 04:47:39;;;;;;;3.85;2.40;;;;;;;-145.69;54.95;51838.44;5133246;27;20201;-81
2023/09/03 04:50:06;;;;;;;4.90;2.08;;;;;;;-145.69;54.87;51846.34;5136006;27;20646;-81
2023/09/03 04:52:35;;;;;;;2.78;1.95;;;;;;;-145.69;55.04;51866.16;5136713;27;20197;-80
2023/09/03 04:55:02;;;;;;;5.38;2.38;;;;;;;-145.69;55.06;51882.00;5137004;27;20235;-80
2023/09/03 04:57:29;;;;;;;6.82;2.55;;;;;;;-145.69;55.22;51838.44;5133743;27;20220;-81
2023/09/03 04:59:55;;;;;;;4.60;2.15;;;;;;;-145.69;54.94;51840.41;5136925;27;20197;-80
2023/09/03 05:02:22;;;;;;;3.88;2.30;;;;;;;-145.69;55.53;51874.06;5136400;27;20686;-81
2023/09/03 05:04:48;;;;;;;2.92;2.17;;;;;;;-145.69;55.27;51878.03;5136835;27;20224;-81
2023/09/03 05:07:15;;;;;;;5.15;2.15;;;;;;;-145.69;55.11;51850.31;5136779;27;20604;-80
2023/09/03 05:09:43;;;;;;;2.88;2.40;;;;;;;-145.69;55.35;51822.59;5136286;27;20197;-81
2023/09/03 05:12:09;;;;;;;5.90;2.72;;;;;;;-145.69;55.44;51856.25;5136804;27;20304;-80
2023/09/03 05:14:36;;;;;;;2.47;1.88;;;;;;;-145.69;55.31;51838.44;5136903;27;20204;-80
2023/09/03 05:17:02;;;;;;;6.07;2.55;;;;;;;-145.69;55.16;51858.22;5136110;27;20596;-80
2023/09/03 05:19:29;;;;;;;5.22;2.33;;;;;;;-145.69;54.96;51834.47;5136218;27;20555;-81
2023/09/03 05:21:56;;;;;;;6.20;2.28;;;;;;;-145.69;55.26;51862.19;5136404;27;20235;-81
2023/09/03 05:24:22;;;;;;;7.03;2.60;;;;;;;-145.69;55.15;51788.94;5136730;27;20284;-81
2023/09/03 05:26:50;;;;;;;8.77;2.33;;;;;;;-145.69;55.20;51779.03;5136325;27;20675;-81
2023/09/03 05:29:17;;;;;;;3.67;1.90;;;;;;;-145.69;55.02;51842.38;5136311;27;20197;-80
2023/09/03 05:31:44;;;;;;;3.90;2.10;;;;;;;-145.69;54.99;51862.19;5136005;27;20192;-81
2023/09/03 05:34:10;;;;;;;4.50;1.88;;;;;;;-145.69;55.29;51840.41;5135900;27;20279;-81
2023/09/03 05:36:37;;;;;;;3.38;1.92;;;;;;;-145.69;55.16;51850.31;5135867;27;20200;-81
2023/09/03 05:39:04;;;;;;;6.13;2.15;;;;;;;-145.69;54.97;51850.31;5136113;27;20647;-81
2023/09/03 05:41:31;;;;;;;6.22;2.55;;;;;;;-145.69;55.09;51834.47;5136218;27;20319;-80
2023/09/03 05:44:05;;;;;;;3.60;2.20;;;;;;;-145.69;54.83;51834.47;5136287;27;20289;-81
2023/09/03 05:46:32;;;;;;;3.22;1.98;;;;;;;-145.69;54.83;51846.34;5136659;27;20195;-81
2023/09/03 05:48:58;;;;;;;4.95;2.08;;;;;;;-145.69;54.56;51840.41;5136273;27;20224;-80
2023/09/03 05:51:25;;;;;;;5.10;1.73;;;;;;;-145.69;54.52;51840.41;5136201;27;20205;-82
2023/09/03 05:53:53;;;;;;;4.60;2.38;;;;;;;-145.69;54.61;51850.31;5135827;27;20211;-81
2023/09/03 05:56:20;;;;;;;3.22;2.35;;;;;;;-145.69;54.23;51834.47;5135131;27;20193;-81
2023/09/03 05:58:47;;;;;;;3.47;2.08;;;;;;;-145.69;54.71;51818.63;5136126;27;20670;-82
2023/09/03 06:01:15;;;;;;;2.95;2.10;;;;;;;-145.69;54.81;51834.47;5135027;27;20231;-81
2023/09/03 06:03:42;;;;;;;3.95;2.40;;;;;;;-145.69;55.15;51836.44;5135697;27;20203;-81
2023/09/03 06:06:10;;;;;;;3.20;1.85;;;;;;;-145.69;54.46;51814.66;5135015;27;20716;-81
2023/09/03 06:08:38;;;;;;;3.65;1.98;;;;;;;-145.69;54.72;51836.44;5135949;27;20240;-81
2023/09/03 06:11:06;;;;;;;4.00;2.10;;;;;;;-145.69;55.01;51792.88;5135827;27;20200;-81
2023/09/03 06:13:34;;;;;;;4.18;2.30;;;;;;;-145.69;54.56;51802.78;5135142;27;20211;-81
2023/09/03 06:16:00;;;;;;;3.50;1.90;;;;;;;-145.69;54.96;51826.56;5135159;27;20343;-81
2023/09/03 06:18:29;;;;;;;3.33;2.28;;;;;;;-145.69;54.69;51832.50;5135590;27;20280;-82
2023/09/03 06:20:56;;;;;;;3.70;2.10;;;;;;;-145.69;54.62;51844.38;5135580;27;20281;-81
2023/09/03 06:23:23;;;;;;;4.70;2.20;;;;;;;-145.69;55.77;51814.66;5133712;27;20935;-80
2023/09/03 06:25:51;;;;;;;3.15;2.20;;;;;;;-145.69;55.24;51802.78;5135295;27;20205;-82
2023/09/03 06:28:18;;;;;;;3.30;2.10;;;;;;;-145.69;55.42;51826.56;5134788;27;20287;-81
2023/09/03 06:30:44;;;;;;;3.33;2.15;;;;;;;-145.69;55.54;51818.63;5134481;27;20192;-81
2023/09/03 06:33:12;;;;;;;3.63;2.33;;;;;;;-145.69;55.16;51790.91;5135453;27;20200;-81
2023/09/03 06:35:40;;;;;;;2.67;1.75;;;;;;;-145.69;54.82;51816.66;5134698;27;20197;-81
2023/09/03 06:38:07;;;;;;;2.78;1.90;;;;;;;-145.69;54.47;51798.81;5135148;27;20287;-80
2023/09/03 06:40:34;;;;;;;2.70;2.00;;;;;;;-145.69;54.70;51788.94;5135022;27;20299;-81
2023/09/03 06:43:00;;;;;;;2.45;2.00;;;;;;;-145.69;54.51;51812.69;5134618;27;20713;-81
2023/09/03 06:45:27;;;;;;;3.47;2.10;;;;;;;-145.69;54.48;51763.19;5134475;27;20287;-81
2023/09/03 06:47:54;;;;;;;2.20;1.90;;;;;;;-145.69;54.49;51808.72;5134994;27;20197;-81
2023/09/03 06:50:23;;;;;;;2.60;1.80;;;;;;;-145.69;54.56;51792.88;5134533;27;20815;-79
2023/09/03 06:52:51;;;;;;;2.35;1.67;;;;;;;-145.69;54.43;51786.94;5134682;27;20197;-81
2023/09/03 06:55:17;;;;;;;3.15;1.98;;;;;;;-145.69;55.23;51814.66;5134866;27;20203;-81
2023/09/03 06:57:44;;;;;;;4.00;1.90;;;;;;;-145.69;54.63;51788.94;5134471;27;20193;-80
2023/09/03 07:00:12;;;;;;;3.08;2.00;;;;;;;-145.69;54.38;51779.03;5134354;27;20215;-80
2023/09/03 07:02:38;;;;;;;2.50;1.80;;;;;;;-145.69;54.23;51786.94;5134791;27;20230;-81
2023/09/03 07:05:05;;;;;;;1.50;1.38;;;;;;;-145.69;54.58;51755.25;5130529;27;20284;-80
2023/09/03 07:07:32;;;;;;;2.60;1.80;;;;;;;-145.69;54.30;51779.03;5133961;27;20292;-80
2023/09/03 07:10:01;;;;;;;5.43;1.95;;;;;;;-145.69;53.50;51761.22;5133966;27;20197;-81
2023/09/03 07:12:27;;;;;;;2.53;1.75;;;;;;;-145.69;53.29;51777.03;5133397;27;20639;-81
2023/09/03 07:14:54;;;;;;;3.95;1.90;;;;;;;-145.69;52.58;51755.25;5134197;27;20285;-81
2023/09/03 07:17:20;;;;;;;3.00;1.85;;;;;;;-145.69;52.04;51731.50;5134248;27;20197;-81
2023/09/03 07:19:47;;;;;;;3.47;1.80;;;;;;;-145.69;51.34;51755.25;5134552;27;20193;-81
2023/09/03 07:22:13;;;;;;;4.88;1.90;;;;;;;-145.69;49.86;51749.31;5134415;27;20228;-81
2023/09/03 07:24:40;;;;;;;5.25;1.90;;;;;;;-145.69;49.46;51719.63;5133426;27;20192;-81
2023/09/03 07:27:08;;;;;;;3.55;1.98;;;;;;;-145.69;48.69;51739.44;5133993;27;20643;-80
2023/09/03 07:29:35;;;;;;;3.25;1.92;;;;;;;-145.69;48.64;51755.25;5133914;27;20593;-80
2023/09/03 07:32:01;;;;;;;3.22;1.83;;;;;;;-145.69;48.11;51737.44;5134179;27;20207;-80
2023/09/03 07:34:28;;;;;;;2.67;1.75;;;;;;;-145.69;47.33;51713.69;5133957;27;20275;-81
2023/09/03 07:36:54;;;;;;;3.53;1.85;;;;;;;-145.69;46.60;51731.50;5133473;27;20220;-80
2023/09/03 07:39:21;;;;;;;3.45;2.00;;;;;;;-145.69;46.11;51709.72;5133985;27;20197;-80
2023/09/03 07:41:47;;;;;;;2.72;1.30;;;;;;;-145.69;45.77;51707.75;5133795;27;20212;-81
2023/09/03 07:44:15;;;;;;;3.45;1.70;;;;;;;-145.69;45.57;51691.91;5133621;27;20271;-81
2023/09/03 07:46:42;;;;;;;2.00;1.17;;;;;;;-145.69;44.57;51683.97;5133685;27;20638;-81
2023/09/03 07:49:08;;;;;;;2.72;1.50;;;;;;;-145.69;43.90;51674.09;5133222;27;20197;-80
2023/09/03 07:51:35;;;;;;;2.75;1.70;;;;;;;-145.69;43.20;51662.22;5133646;27;20671;-80
2023/09/03 07:54:02;;;;;;;1.48;1.17;;;;;;;-145.69;42.64;51697.84;5133439;27;20200;-81
2023/09/03 07:56:30;;;;;;;2.70;1.52;;;;;;;-145.69;42.18;51693.88;5133945;27;20671;-81
2023/09/03 07:58:56;;;;;;;2.90;1.30;;;;;;;-145.69;41.58;51658.25;5133954;27;20292;-81
2023/09/03 08:01:27;;;;;;;2.50;1.42;;;;;;;-145.69;41.33;51652.31;5132721;28;20192;-81
2023/09/03 08:03:56;;;;;;;2.05;1.30;;;;;;;-145.69;40.83;51713.69;5133702;27;20197;-81
2023/09/03 08:06:22;;;;;;;3.67;1.73;;;;;;;-145.69;39.97;51680.03;5133759;27;20529;-80
2023/09/03 08:08:53;;;;;;;3.33;1.33;;;;;;;-145.69;40.44;51678.03;5133423;27;20200;-80
2023/09/03 08:11:20;;;;;;;1.70;1.20;;;;;;;-145.69;40.04;51664.19;5132967;28;20189;-80
2023/09/03 08:13:46;;;;;;;1.73;1.30;;;;;;;-145.69;40.08;51695.88;5133626;27;20192;-81
2023/09/03 08:16:13;;;;;;;4.47;1.50;;;;;;;-145.69;40.44;51687.94;5133460;27;20216;-81
2023/09/03 08:18:41;;;;;;;3.03;1.60;;;;;;;-145.69;40.37;51650.31;5133729;27;20204;-81
2023/09/03 08:21:07;;;;;;;4.22;1.73;;;;;;;-145.69;41.04;51678.03;5133125;27;20275;-81
2023/09/03 08:23:34;;;;;;;5.53;1.90;;;;;;;-145.69;40.69;51682.00;5131882;27;20702;-81
2023/09/03 08:26:01;;;;;;;2.45;1.48;;;;;;;-145.69;40.65;51668.16;5137214;27;20192;-80
2023/09/03 08:28:27;;;;;;;4.00;1.70;;;;;;;-145.69;40.19;51660.22;5137559;27;20204;-82
2023/09/03 08:30:54;;;;;;;2.65;1.40;;;;;;;-145.69;40.48;51680.03;5137199;27;20201;-81
2023/09/03 08:33:20;;;;;;;2.75;1.50;;;;;;;-145.69;39.85;51650.31;5116766;28;20197;-81
2023/09/03 08:35:48;;;;;;;2.15;1.30;;;;;;;-145.69;39.92;51680.03;5116906;28;20204;-81
2023/09/03 08:38:15;;;;;;;6.18;1.45;;;;;;;-145.69;39.83;51674.09;5129638;27;20200;-81
2023/09/03 08:40:43;;;;;;;3.65;1.55;;;;;;;-145.69;39.93;51676.06;5137499;27;20654;-81
2023/09/03 08:43:12;;;;;;;2.20;1.25;;;;;;;-145.69;39.62;51644.38;5136718;27;20255;-81
2023/09/03 08:45:44;;;;;;;2.65;1.33;;;;;;;-145.69;38.82;51660.22;5137296;27;20193;-81
2023/09/03 08:48:11;;;;;;;2.05;1.27;;;;;;;-145.69;38.93;51648.34;5137113;27;20203;-82
2023/09/03 08:50:39;;;;;;;2.25;1.60;;;;;;;-145.69;39.04;51672.09;5137151;27;20192;-82
2023/09/03 08:53:08;;;;;;;2.75;1.50;;;;;;;-145.69;39.36;51644.38;5137322;27;20201;-82
2023/09/03 08:55:35;;;;;;;2.33;1.50;;;;;;;-145.69;39.78;51642.41;5136685;27;20818;-81
2023/09/03 08:58:02;;;;;;;3.42;1.98;;;;;;;-145.69;39.45;51683.97;5136982;27;20211;-82
2023/09/03 09:00:29;;;;;;;13.98;1.90;;;;;;;-145.69;40.12;51668.16;5136766;27;20195;-81
2023/09/03 09:02:56;;;;;;;2.13;1.40;;;;;;;-145.69;40.04;51630.53;5136636;27;20266;-81
2023/09/03 09:05:23;;;;;;;3.28;1.70;;;;;;;-145.69;39.84;51638.44;5136476;27;20275;-82
2023/09/03 09:07:50;;;;;;;3.53;1.40;;;;;;;-145.69;40.12;51672.09;5135944;27;20335;-81
2023/09/03 09:10:23;;;;;;;3.08;1.35;;;;;;;-145.69;40.41;51670.13;5129515;27;20193;-81
2023/09/03 09:12:58;;;;;;;2.70;1.73;;;;;;;-145.69;40.44;51674.09;5136776;27;20223;-82
2023/09/03 09:15:28;;;;;;;4.53;1.60;;;;;;;-145.69;40.16;51695.88;5136763;27;20719;-81
2023/09/03 09:17:56;;;;;;;1.70;1.50;;;;;;;-145.69;40.16;51650.31;5136671;27;20258;-81
2023/09/03 09:20:23;;;;;;;2.08;1.40;;;;;;;-145.69;40.96;51652.31;5136077;27;20195;-82
2023/09/03 09:22:50;;;;;;;3.65;1.80;;;;;;;-145.69;41.08;51672.09;5136418;27;20232;-81
2023/09/03 09:25:22;;;;;;;3.17;1.77;;;;;;;-145.69;40.44;51660.22;5136355;27;20193;-81
2023/09/03 09:27:49;;;;;;;2.22;1.58;;;;;;;-145.69;40.61;51656.25;5136341;27;20197;-80
2023/09/03 09:30:19;;;;;;;2.45;1.65;;;;;;;-145.69;40.65;51660.22;5136333;27;20671;-81
2023/09/03 09:32:46;;;;;;;4.82;1.90;;;;;;;-145.69;40.08;51660.22;5135939;27;20532;-82
2023/09/03 09:35:23;;;;;;;3.25;1.67;;;;;;;-145.69;39.18;51664.19;5135615;27;20205;-82
2023/09/03 09:37:50;;;;;;;3.38;1.70;;;;;;;-145.69;39.42;51664.19;5136104;27;20703;-81
2023/09/03 09:40:28;;;;;;;2.28;1.50;;;;;;;-145.69;38.75;51668.16;5136155;27;20196;-82
2023/09/03 09:42:57;;;;;;;2.30;1.70;;;;;;;-145.69;38.46;51640.44;5135880;27;20247;-81
2023/09/03 09:45:23;;;;;;;4.07;1.73;;;;;;;-145.69;38.51;51666.16;5136426;27;20197;-80
2023/09/03 09:48:03;;;;;;;2.00;1.52;;;;;;;-145.69;37.81;51636.47;5136219;27;20734;-80
2023/09/03 09:50:32;;;;;;;3.53;1.45;;;;;;;-145.69;37.86;51656.25;5135610;27;20662;-81
2023/09/03 09:52:59;;;;;;;4.10;1.55;;;;;;;-145.69;38.29;51648.34;5136147;27;20207;-81
2023/09/03 09:55:29;;;;;;;2.55;1.30;;;;;;;-145.69;37.96;51668.16;5136183;27;20196;-82
2023/09/03 09:57:56;;;;;;;2.45;1.70;;;;;;;-145.69;38.30;51648.34;5136041;27;20201;-82
2023/09/03 10:00:36;;;;;;;2.10;1.33;;;;;;;-145.69;37.72;51642.41;5134831;27;20188;-80
2023/09/03 10:03:04;;;;;;;3.95;1.50;;;;;;;-145.69;38.05;51636.47;5135463;27;20216;-83
2023/09/03 10:05:31;;;;;;;2.72;1.50;;;;;;;-145.69;37.71;51642.41;5135980;27;20554;-80
2023/09/03 10:07:59;;;;;;;2.42;1.63;;;;;;;-145.69;38.08;51632.50;5135277;27;20189;-81
2023/09/03 10:10:28;;;;;;;3.70;1.40;;;;;;;-145.69;38.22;51644.38;5135245;27;20196;-82
2023/09/03 10:12:55;;;;;;;2.72;1.40;;;;;;;-145.69;37.82;51630.53;5135497;27;20655;-81
2023/09/03 10:15:23;;;;;;;2.70;1.45;;;;;;;-145.69;37.38;51608.75;5135510;27;20273;-82
2023/09/03 10:17:53;;;;;;;2.97;1.35;;;;;;;-145.69;37.19;51620.63;5134740;27;20197;-81
2023/09/03 10:20:21;;;;;;;2.67;1.45;;;;;;;-145.69;36.90;51640.44;5135338;27;20792;-81
2023/09/03 10:22:50;;;;;;;5.70;1.33;;;;;;;-145.69;36.27;51642.41;5135338;27;20315;-81
2023/09/03 10:25:21;;;;;;;2.17;1.35;;;;;;;-145.69;36.01;51640.44;5135573;27;20209;-81
2023/09/03 10:27:53;;;;;;;1.73;1.17;;;;;;;-145.69;36.21;51612.72;5134737;27;20189;-81
2023/09/03 10:30:25;;;;;;;2.55;1.10;;;;;;;-145.69;35.70;51616.66;5135395;27;20215;-81
2023/09/03 10:32:53;;;;;;;6.50;4.00;;;;;;;-145.69;35.89;51636.47;5135269;27;20196;-80
2023/09/03 10:35:20;;;;;;;1.88;1.17;;;;;;;-145.69;36.29;51628.53;5134999;27;20197;-82
2023/09/03 10:37:49;;;;;;;2.95;1.20;;;;;;;-145.69;35.75;51620.63;5134865;27;20274;-83
2023/09/03 10:40:21;;;;;;;3.15;1.35;;;;;;;-145.69;35.16;51618.66;5135299;27;20201;-81
2023/09/03 10:42:50;;;;;;;3.53;1.10;;;;;;;-145.69;35.85;51616.66;5134408;27;20239;-84
2023/09/03 10:45:18;;;;;;;2.33;1.40;;;;;;;-145.69;35.56;51614.69;5134696;27;20289;-80
2023/09/03 10:48:01;;;;;;;1.58;0.95;;;;;;;-145.69;35.16;51624.59;5114267;28;20201;-82
2023/09/03 10:50:50;;;;;;;1.98;1.00;;;;;;;-145.69;35.34;51590.94;5114366;28;20204;-81
2023/09/03 10:53:36;;;;;;;1.40;0.82;;;;;;;-145.69;35.05;51614.69;5115558;27;20207;-81
2023/09/03 10:56:14;;;;;;;1.27;0.95;;;;;;;-145.69;35.56;51620.63;5114414;28;20202;-80
2023/09/03 10:58:57;;;;;;;6.68;1.00;;;;;;;-145.69;35.60;51610.72;5114269;28;20197;-83
2023/09/03 11:01:26;;;;;;;2.17;1.00;;;;;;;-145.69;35.80;51600.81;5114352;28;20193;-83
2023/09/03 11:03:54;;;;;;;3.75;1.17;;;;;;;-145.69;35.60;51612.72;5129618;27;20274;-83
2023/09/03 11:06:23;;;;;;;1.70;1.17;;;;;;;-145.69;35.89;51644.38;5134328;27;20690;-82
2023/09/03 11:09:22;;;;;;;1.10;0.80;;;;;;;-145.69;34.90;51622.59;5131675;27;20679;-83
2023/09/03 11:11:48;;;;;;;3.40;1.00;;;;;;;-145.69;35.57;51638.44;5134746;27;20200;-82
2023/09/03 11:14:17;;;;;;;2.47;1.17;;;;;;;-145.69;35.16;51612.72;5132362;27;20229;-81
2023/09/03 11:16:43;;;;;;;1.27;0.93;;;;;;;-145.69;36.29;51620.63;5133298;27;20644;-82
2023/09/03 11:19:10;;;;;;;3.20;1.00;;;;;;;-145.69;35.72;51608.75;5134473;27;20193;-82
2023/09/03 11:21:38;;;;;;;2.13;0.85;;;;;;;-145.69;35.47;51622.59;5134304;27;20227;-81
2023/09/03 11:24:08;;;;;;;4.75;1.15;;;;;;;-145.69;34.89;51612.72;5133901;27;20568;-82